Terminal Aerodrome Forecast
Issued by NWS Mt. Holly, NJ

Home | Current Version | Previous Version | Text Only | Print | Product List | Glossary On
Versions: 1 2 3 4 5 6 7 8 9 10 11 12 13 14
420
FTUS41 KPHI 292327
TAFRDG
TAF
KRDG 292327Z 3000/3024 20007KT P6SM -SHRA FEW025 BKN050
      TEMPO 3000/3002 3SM -SHRA BR SCT025 OVC035
     FM300200 VRB03KT 4SM -SHRA BR BKN025 OVC050
      TEMPO 3002/3006 2SM +SHRA OVC015
     FM300600 VRB03KT 2SM SHRA BR OVC015
     FM301200 25005KT 4SM -SHRA BR OVC025
     FM301600 22005KT P6SM VCSH BKN035=

USA.gov is the U.S. government's official web portal to all federal, state and local government web resources and services.